Talbott, Tennessee
Current Conditions -  °F | °C
As of 4:35 PM on Friday 24 Oct 2014 (Local Time) from KMOR Reporting Station
Clear Clear  
Wind Chill: 64°   Ceiling: Unl
Heat Index: 64°   Visibility: 10mi
Dew Point: 39°   Wind: 3mph
Humidity: 40%   Direction: NA
Pressure: 30.05"   Gusts: NA
Location:  36.15°N, 83.41°W
Report Text: KMOR 242035Z AUTO VRB03KT 10SM CLR 18/04 A3005 RMK
Loading
Personal Weather Stations






























Interactive Weather Map
Tropical Storm Tracking
New forecast layout! Learn more

10-Day Weather Forecast

Advertisements
Track Severe Weather on mobile